Weather observations for the past three days for
Santa Barbara, Santa Barbara Municipal Airport
Imperial (Metric)
Date Time (pdt) Wind (mph) Vis. (mi.) Weather Sky Cond. Temperature (ºF) Relative Humidity Wind Chill (°F) Heat Index (°F) Pressure Precipitation (in)
Air Dwpt 6 hour altimeter (in) sea level (mb) 1 hr 3 hr 6 hr
Max. Min.
02 14:53 Vrbl 3 10.00 Overcast BKN012 OVC016 62.1 55 78% 29.91 1012.9
02 13:53 W 7 4.00 Overcast with Haze BKN006 OVC013 61 55 81% 29.94 1014.0
02 12:53 W 6 5.00 Overcast with Haze BKN005 OVC009 60.1 55 84% 29.96 1014.4
02 11:53 SW 6 3.00 Fog/Mist BKN005 OVC014 60.1 55.9 86% 29.97 1014.9
02 10:53 S 6 2.50 Fog/Mist OVC005 57.9 55.9 59 57 93% 29.98 1015.1
02 09:53 SE 7 2.50 Fog/Mist OVC003 57.9 55.9 93% 29.97 1014.9
02 08:53 E 7 2.50 Fog/Mist OVC005 57.9 55.9 93% 29.97 1014.9
02 07:53 S 3 3.00 Fog/Mist OVC005 57.9 55 90% 29.97 1014.8
02 06:53 E 5 7.00 Overcast OVC008 57 54 90% 29.93 1013.4
02 05:53 NE 6 8.00 Overcast OVC008 57 54 90% 29.94 1013.7
02 04:53 E 5 8.00 Mostly Cloudy BKN009 BKN020 57 54 57.9 55 90% 29.94 1013.7
02 03:53 E 5 7.00 Fair CLR 55 54 96% 29.92 1013.2
02 02:53 E 6 8.00 Overcast BKN007 OVC010 57 54 90% 29.91 1012.8
02 01:53 E 9 8.00 Overcast OVC007 57 55 93% 29.92 1013.3
02 00:53 E 12 7.00 Overcast OVC007 57 55 93% 29.92 1013.1
01 23:53 E 5 7.00 A Few Clouds FEW007 57 55 93% 29.92 1013.0
01 22:53 SE 6 6.00 Fog/Mist CLR 57 54 64 55.9 90% 29.91 1012.7
01 21:53 Calm 8.00 Fair CLR 57 54 90% 29.91 1012.7
01 20:53 E 3 8.00 Fair CLR 57.9 54 87% 29.9 1012.4
01 19:53 Calm 7.00 Fair CLR 57.9 54 87% 29.89 1012.2
01 18:53 W 8 9.00 Fair CLR 60.1 54 80% 29.89 1012.3
01 17:53 W 12 9.00 Fair CLR 62.1 54 75% 29.89 1012.2
01 16:53 W 10 G 20 10.00 Fair CLR 64 54 66.9 61 70% 29.9 1012.5
01 15:53 W 13 9.00 Fair with Haze CLR 64.9 55 70% 29.92 1013.0
01 14:53 SW 9 7.00 Fair with Haze CLR 64.9 55 70% 29.94 1013.8
01 13:53 SW 9 10.00 Fair with Haze CLR 66 55 68% 29.95 1014.1
01 12:53 S 8 8.00 Mostly Cloudy BKN014 66 55 68% 29.96 1014.6
01 11:53 SE 6 9.00 Overcast OVC018 63 55 76% 29.98 1015.2
01 10:53 W 5 7.00 Overcast OVC018 61 55 62.1 52 81% 29.99 1015.4
01 09:53 S 6 6.00 Overcast with Haze OVC016 61 55 81% 29.99 1015.5
01 08:53 S 6 6.00 Fog/Mist OVC012 59 55 87% 29.98 1015.3
01 07:53 Vrbl 3 7.00 Mostly Cloudy BKN009 BKN016 59 55 87% 29.96 1014.6
01 06:53 Calm 5.00 Fog/Mist BKN009 BKN016 54 51.1 90% 29.94 1013.9
01 05:53 NE 6 9.00 Mostly Cloudy BKN023 53.1 51.1 93% 29.93 1013.4
01 04:53 Calm 8.00 A Few Clouds FEW023 53.1 51.1 61 53.1 93% 29.92 1013.1
01 03:53 E 3 7.00 Fair CLR 55.9 54 93% 29.92 1013.1
01 02:53 E 6 7.00 Fair CLR 57 54 90% 29.91 1012.9
01 01:53 E 10 7.00 Fair CLR 57.9 55 90% 29.9 1012.6
01 00:53 E 7 8.00 Fair CLR 59 54 83% 29.91 1012.8
30 23:53 E 7 8.00 Fair CLR 59 55 87% 29.9 1012.3
30 22:53 E 8 8.00 Fair CLR 60.1 55 64.9 60.1 84% 29.88 1011.7
30 21:53 SE 6 7.00 Fair CLR 60.1 55.9 86% 29.86 1011.1
30 20:53 SE 12 8.00 Fair CLR 60.1 55.9 86% 29.84 1010.3
30 19:53 SE 9 8.00 Fair CLR 61 54 78% 29.82 1009.9
30 18:53 SE 8 7.00 Fair CLR 63 55.9 78% 29.82 1009.6
30 17:53 SE 10 7.00 Fair CLR 64 55.9 75% 29.82 1009.6
30 16:53 SE 7 8.00 Fair CLR 64.9 55.9 70 62.1 73% 29.82 1009.7
30 15:53 SE 8 8.00 Fair CLR 64.9 55 70% 29.83 1010.1
30 14:53 SW 8 10.00 Fair CLR 69.1 51.1 53% 29.85 1010.9
30 13:53 SW 12 10.00 Fair CLR 66.9 53.1 61% 29.88 1011.6
30 12:53 Vrbl 6 10.00 Fair with Haze CLR 66 54 65% 29.89 1012.1
30 11:53 S 7 9.00 Fair with Haze CLR 64.9 55 70% 29.91 1012.8
30 10:53 SE 9 8.00 Fair with Haze CLR 62.1 55 63 50 78% 29.92 1013.2
30 09:53 SE 12 8.00 Fair CLR 62.1 55 78% 29.92 1013.2
30 08:53 SE 8 8.00 Fair CLR 61 55 81% 29.92 1013.0
30 07:53 Calm 10.00 Fair CLR 57.9 51.1 78% 29.92 1013.1
30 06:53 Calm 10.00 Fair CLR 51.1 48 89% 29.91 1012.9
30 05:53 NW 3 10.00 Fair CLR 51.1 48 89% 29.91 1012.7
30 04:53 Calm 10.00 Fair CLR 53.1 50 60.1 51.1 89% 29.91 1012.7
30 03:53 N 3 9.00 Fair CLR 53.1 51.1 93% 29.91 1012.9
30 02:53 NE 5 8.00 Fair CLR 54 52 93% 29.93 1013.4
30 01:53 E 5 8.00 Fair CLR 57 54 90% 29.94 1013.7
30 00:53 E 5 9.00 Fair CLR 57.9 54 87% 29.94 1013.9
29 23:53 E 9 9.00 Fair CLR 60.1 54 80% 29.94 1014.0
29 22:53 E 9 9.00 Fair CLR 60.1 55 70 57.9 84% 29.95 1014.1
29 21:53 SE 8 8.00 Fair CLR 59 55.9 90% 29.95 1014.1
29 20:53 SE 7 8.00 Fair CLR 59 55.9 90% 29.93 1013.5
29 19:53 SE 10 8.00 Fair CLR 61 55 81% 29.92 1013.3
29 18:53 SE 5 9.00 Fair CLR 64.9 55 70% 29.92 1013.2
29 17:53 S 5 10.00 Fair CLR 68 55 63% 29.93 1013.5
29 16:53 W 8 G 17 10.00 Fair CLR 70 50 72 64 49% 29.94 1013.8
29 15:53 W 10 10.00 Fair CLR 71.1 46.9 42% 29.96 1014.4
Date Time (pdt) Wind (mph) Vis. (mi.) Weather Sky Cond. Air Dwpt Max. Min. Relative Humidity Wind Chill (°F) Heat Index (°F) altimeter (in) sea level (mb) 1 hr 3 hr 6 hr
6 hour
Temperature (ºF) Pressure Precipitation (in)